createdAt,value
2023-02-25T00:01:57.673Z,30.60
2023-02-25T00:04:31.514Z,39.00
2023-02-25T00:06:59.786Z,26.58
2023-02-25T00:09:28.770Z,22.15
2023-02-25T00:11:56.977Z,27.42
2023-02-25T00:14:24.430Z,23.85
2023-02-25T00:16:56.148Z,23.15
2023-02-25T00:19:26.019Z,23.55
2023-02-25T00:21:54.043Z,26.63
2023-02-25T00:24:21.647Z,29.42
2023-02-25T00:26:50.376Z,29.55
2023-02-25T00:29:18.544Z,21.85
2023-02-25T00:31:47.080Z,23.10
2023-02-25T00:34:15.859Z,20.70
2023-02-25T00:36:46.085Z,35.22
2023-02-25T00:39:13.924Z,19.52
2023-02-25T00:41:41.974Z,20.58
2023-02-25T00:44:09.602Z,16.67
2023-02-25T00:49:06.562Z,24.75
2023-02-25T00:51:34.552Z,28.38
2023-02-25T00:54:02.126Z,22.25
2023-02-25T00:56:30.098Z,28.52
2023-02-25T00:59:00.285Z,26.13
2023-02-25T01:01:33.492Z,25.63
2023-02-25T01:04:01.884Z,16.23
2023-02-25T01:06:32.561Z,18.92
2023-02-25T01:09:01.335Z,20.98
2023-02-25T01:11:32.805Z,16.63
2023-02-25T01:14:08.111Z,24.35
2023-02-25T01:16:38.508Z,18.02
2023-02-25T01:19:12.879Z,22.42
2023-02-25T01:21:45.669Z,26.13
2023-02-25T01:24:21.987Z,22.33
2023-02-25T01:26:53.603Z,11.68
2023-02-25T01:29:42.162Z,20.48
2023-02-25T01:32:14.180Z,16.85
2023-02-25T01:34:42.346Z,24.63
2023-02-25T01:37:10.436Z,14.95
2023-02-25T01:39:41.678Z,11.82
2023-02-25T01:42:17.090Z,20.53
2023-02-25T01:45:18.720Z,26.40
2023-02-25T01:47:50.713Z,28.83
2023-02-25T01:50:22.508Z,17.85
2023-02-25T01:52:53.433Z,19.85
2023-02-25T01:55:21.243Z,18.73
2023-02-25T01:57:50.566Z,19.02
2023-02-25T02:00:18.963Z,21.48
2023-02-25T02:02:49.504Z,23.60
2023-02-25T02:05:17.577Z,15.82
2023-02-25T02:07:45.426Z,15.07
2023-02-25T02:10:13.000Z,11.18
2023-02-25T02:12:44.647Z,14.70
2023-02-25T02:15:15.842Z,13.20
2023-02-25T02:18:03.095Z,17.92
2023-02-25T02:21:18.929Z,12.40
2023-02-25T02:24:11.371Z,27.45
2023-02-25T02:26:52.156Z,24.83
2023-02-25T02:29:50.811Z,14.18
2023-02-25T02:32:24.620Z,15.93
2023-02-25T02:34:58.421Z,16.35
2023-02-25T02:38:12.331Z,20.35
2023-02-25T02:41:25.217Z,19.45
2023-02-25T02:44:12.921Z,11.40
2023-02-25T02:47:09.494Z,18.38
2023-02-25T02:49:54.035Z,14.55
2023-02-25T02:52:29.254Z,23.15
2023-02-25T02:55:22.294Z,32.95
2023-02-25T02:58:00.714Z,12.07
2023-02-25T03:00:36.712Z,12.35
2023-02-25T03:03:22.351Z,15.02
2023-02-25T03:05:53.369Z,25.33
2023-02-25T03:08:29.460Z,17.38
2023-02-25T03:10:57.798Z,14.50
2023-02-25T03:13:26.545Z,20.58
2023-02-25T03:15:55.722Z,12.45
2023-02-25T03:21:00.705Z,28.27
2023-02-25T03:23:34.310Z,24.08
2023-02-25T03:26:31.405Z,14.93
2023-02-25T03:29:04.508Z,18.20
2023-02-25T03:31:58.790Z,14.95
2023-02-25T03:34:39.106Z,24.17
2023-02-25T03:37:22.733Z,11.82
2023-02-25T03:39:56.852Z,10.18
2023-02-25T03:42:32.424Z,11.40
2023-02-25T03:45:05.579Z,10.60
2023-02-25T03:47:37.397Z,16.13
2023-02-25T03:50:23.849Z,10.32
2023-02-25T03:52:56.071Z,12.38
2023-02-25T03:55:44.224Z,17.30
2023-02-25T03:58:12.138Z,13.63
2023-02-25T04:00:43.060Z,16.43
2023-02-25T04:03:10.713Z,14.45
2023-02-25T04:05:39.368Z,11.63
2023-02-25T04:08:16.038Z,17.10
2023-02-25T04:10:49.865Z,18.33
2023-02-25T04:13:20.990Z,13.93
2023-02-25T04:15:50.817Z,17.83
2023-02-25T04:18:18.439Z,17.55
2023-02-25T04:20:46.255Z,13.05
2023-02-25T04:23:17.037Z,14.27
2023-02-25T04:25:45.022Z,13.73
2023-02-25T04:28:12.551Z,16.60
2023-02-25T04:30:40.542Z,20.40
2023-02-25T04:33:09.662Z,9.30
2023-02-25T04:38:07.388Z,9.27
2023-02-25T04:40:37.739Z,14.23
2023-02-25T04:43:05.287Z,7.50
2023-02-25T04:45:33.113Z,15.50
2023-02-25T04:48:00.764Z,18.50
2023-02-25T04:50:28.807Z,11.93
2023-02-25T04:52:56.370Z,7.80
2023-02-25T04:55:24.327Z,14.55
2023-02-25T04:57:51.856Z,19.75
2023-02-25T05:00:24.375Z,12.73
2023-02-25T05:02:52.293Z,17.35
2023-02-25T05:05:20.300Z,21.02
2023-02-25T05:07:48.222Z,13.55
2023-02-25T05:10:16.437Z,15.45
2023-02-25T05:12:44.155Z,8.80
2023-02-25T05:15:12.817Z,13.93
2023-02-25T05:17:40.401Z,14.43
2023-02-25T05:20:12.237Z,19.33
2023-02-25T05:22:41.584Z,10.50
2023-02-25T05:25:10.479Z,21.27
2023-02-25T05:27:38.121Z,13.02
2023-02-25T05:30:06.946Z,16.80
2023-02-25T05:32:34.764Z,19.67
2023-02-25T05:35:02.850Z,14.25
2023-02-25T05:37:32.511Z,12.88
2023-02-25T05:40:01.393Z,18.55
2023-02-25T05:42:29.545Z,11.80
2023-02-25T05:44:57.392Z,16.63
2023-02-25T05:47:24.967Z,13.20
2023-02-25T05:49:52.947Z,14.23
2023-02-25T05:52:20.641Z,10.52
2023-02-25T05:54:48.531Z,12.52
2023-02-25T05:57:16.384Z,19.15
2023-02-25T05:59:44.332Z,14.80
2023-02-25T06:02:11.933Z,9.85
2023-02-25T06:04:39.933Z,11.25
2023-02-25T06:07:08.151Z,17.90
2023-02-25T06:09:37.520Z,17.00
2023-02-25T06:12:05.605Z,19.13
2023-02-25T06:14:33.529Z,27.23
2023-02-25T06:17:02.273Z,17.55
2023-02-25T06:19:30.543Z,24.20
2023-02-25T06:21:58.198Z,18.88
2023-02-25T06:24:26.064Z,19.60
2023-02-25T06:26:53.542Z,24.50
2023-02-25T06:29:21.354Z,17.15
2023-02-25T06:31:48.950Z,23.65
2023-02-25T06:34:16.934Z,16.35
2023-02-25T06:36:44.676Z,17.35
2023-02-25T06:39:13.443Z,22.10
2023-02-25T06:41:41.169Z,21.58
2023-02-25T06:44:09.317Z,17.02
2023-02-25T06:46:37.006Z,19.00
2023-02-25T06:49:04.890Z,15.10
2023-02-25T06:51:32.758Z,16.85
2023-02-25T06:54:03.527Z,20.65
2023-02-25T06:56:31.400Z,26.75
2023-02-25T06:58:59.577Z,17.15
2023-02-25T07:01:27.592Z,17.80
2023-02-25T07:03:55.593Z,14.60
2023-02-25T07:06:23.384Z,20.88
2023-02-25T07:08:51.402Z,29.52
2023-02-25T07:11:18.815Z,14.45
2023-02-25T07:13:50.388Z,14.73
2023-02-25T07:16:18.597Z,19.40
2023-02-25T07:18:47.181Z,22.60
2023-02-25T07:21:16.124Z,18.95
2023-02-25T07:23:44.453Z,13.15
2023-02-25T07:26:13.824Z,21.98
2023-02-25T07:28:42.083Z,12.75
2023-02-25T07:31:19.423Z,12.50
2023-02-25T07:33:48.116Z,19.52
2023-02-25T07:36:17.162Z,18.55
2023-02-25T07:41:15.913Z,20.45
2023-02-25T07:43:44.346Z,19.90
2023-02-25T07:46:13.468Z,16.42
2023-02-25T07:51:18.620Z,17.60
2023-02-25T07:53:48.934Z,18.38
2023-02-25T07:56:18.254Z,20.17
2023-02-25T07:58:46.605Z,18.33
2023-02-25T08:01:31.782Z,22.80
2023-02-25T08:04:06.676Z,23.58
2023-02-25T08:06:41.087Z,26.33
2023-02-25T08:09:14.086Z,13.30
2023-02-25T08:11:41.891Z,18.85
2023-02-25T08:14:09.877Z,22.08
2023-02-25T08:16:37.869Z,26.13
2023-02-25T08:19:06.808Z,17.50
2023-02-25T08:21:34.494Z,23.58
2023-02-25T08:24:02.343Z,26.73
2023-02-25T08:26:29.856Z,21.13
2023-02-25T08:28:58.354Z,25.15
2023-02-25T08:31:26.387Z,19.58
2023-02-25T08:33:55.061Z,15.80
2023-02-25T08:36:29.381Z,18.88
2023-02-25T08:39:00.496Z,25.88
2023-02-25T08:41:29.087Z,22.50
2023-02-25T08:44:00.544Z,15.25
2023-02-25T08:46:31.588Z,21.65
2023-02-25T08:49:00.672Z,14.98
2023-02-25T08:51:34.162Z,19.42
2023-02-25T08:54:09.425Z,19.23
2023-02-25T08:56:38.301Z,21.08
2023-02-25T08:59:06.281Z,17.42
2023-02-25T09:01:45.890Z,15.75
2023-02-25T09:04:15.880Z,20.45
2023-02-25T09:06:44.586Z,21.83
2023-02-25T09:09:13.460Z,17.65
2023-02-25T09:11:42.739Z,16.63
2023-02-25T09:16:39.247Z,25.90
2023-02-25T09:19:07.585Z,24.45
2023-02-25T09:21:36.301Z,23.67
2023-02-25T09:24:04.509Z,20.75
2023-02-25T09:26:32.415Z,25.55
2023-02-25T09:29:05.619Z,21.80
2023-02-25T09:31:34.776Z,27.02
2023-02-25T09:34:09.305Z,19.17
2023-02-25T09:36:37.366Z,19.83
2023-02-25T09:39:10.283Z,25.92
2023-02-25T09:41:55.958Z,24.10
2023-02-25T09:44:36.551Z,21.48
2023-02-25T09:47:23.334Z,21.90
2023-02-25T09:50:02.663Z,27.38
2023-02-25T09:52:40.018Z,22.13
2023-02-25T09:55:36.457Z,23.88
2023-02-25T09:58:46.194Z,28.70
2023-02-25T10:01:27.470Z,29.30
2023-02-25T10:04:24.305Z,22.13
2023-02-25T10:06:53.312Z,34.35
2023-02-25T10:09:50.683Z,33.05
2023-02-25T10:12:33.657Z,32.88
2023-02-25T10:16:04.314Z,29.25
2023-02-25T10:19:08.602Z,21.08
2023-02-25T10:21:45.229Z,25.38
2023-02-25T10:24:47.169Z,27.02
2023-02-25T10:27:41.617Z,21.95
2023-02-25T10:30:23.382Z,26.10
2023-02-25T10:32:51.571Z,24.45
2023-02-25T10:35:27.599Z,34.67
2023-02-25T10:37:55.735Z,25.35
2023-02-25T10:40:29.359Z,25.65
2023-02-25T10:43:20.252Z,29.73
2023-02-25T10:45:58.463Z,29.92
2023-02-25T10:48:26.233Z,34.88
2023-02-25T10:51:16.150Z,43.25
2023-02-25T10:53:59.424Z,34.25
2023-02-25T10:56:47.231Z,39.00
2023-02-25T10:59:30.040Z,36.00
2023-02-25T11:02:00.957Z,35.35
2023-02-25T11:04:37.372Z,39.22
2023-02-25T11:07:43.550Z,33.38
2023-02-25T11:10:20.806Z,41.35
2023-02-25T11:12:54.163Z,38.50
2023-02-25T11:15:43.675Z,38.45
2023-02-25T11:18:31.635Z,39.55
2023-02-25T11:21:09.477Z,37.65
2023-02-25T11:23:47.028Z,38.35
2023-02-25T11:26:39.359Z,36.25
2023-02-25T11:29:23.049Z,36.60
2023-02-25T11:32:16.121Z,42.67
2023-02-25T11:34:52.088Z,37.17
2023-02-25T11:37:45.549Z,42.85
2023-02-25T11:40:30.454Z,47.28
2023-02-25T11:43:06.823Z,41.20
2023-02-25T11:45:39.053Z,36.50
2023-02-25T11:48:41.215Z,42.35
2023-02-25T11:51:33.708Z,35.63
2023-02-25T11:55:12.732Z,38.63
2023-02-25T11:57:40.340Z,36.97
2023-02-25T12:00:40.317Z,32.25
2023-02-25T12:03:36.906Z,25.08
2023-02-25T12:06:04.286Z,27.08
2023-02-25T12:09:05.930Z,19.25
2023-02-25T12:11:54.185Z,19.30
2023-02-25T12:14:58.823Z,18.30
2023-02-25T12:17:38.206Z,6.10
2023-02-25T12:20:50.178Z,3.72
2023-02-25T12:23:56.554Z,2.08
2023-02-25T12:27:20.183Z,6.38
2023-02-25T12:30:08.660Z,5.85
2023-02-25T12:32:59.580Z,1.77
2023-02-25T12:36:04.728Z,2.13
2023-02-25T12:38:53.548Z,2.17
2023-02-25T12:41:46.934Z,2.07
2023-02-25T12:44:42.258Z,2.60
2023-02-25T12:48:02.904Z,1.50
2023-02-25T12:51:01.951Z,1.27
2023-02-25T12:53:46.654Z,2.53
2023-02-25T12:56:33.099Z,2.88
2023-02-25T12:59:34.905Z,0.45
2023-02-25T13:02:34.076Z,1.52
2023-02-25T13:05:48.944Z,1.27
2023-02-25T13:08:47.547Z,1.05
2023-02-25T13:12:09.911Z,2.85
2023-02-25T13:14:36.932Z,2.17
2023-02-25T13:17:47.194Z,0.38
2023-02-25T13:20:44.205Z,0.85
2023-02-25T13:23:51.761Z,1.42
2023-02-25T13:26:44.700Z,2.08
2023-02-25T13:29:35.821Z,3.97
2023-02-25T13:32:50.345Z,2.45
2023-02-25T13:35:56.531Z,1.77
2023-02-25T13:38:28.171Z,1.63
2023-02-25T13:41:55.169Z,3.42
2023-02-25T13:44:29.251Z,1.15
2023-02-25T13:47:17.496Z,1.30
2023-02-25T13:50:06.362Z,0.40
2023-02-25T13:53:13.850Z,1.00
2023-02-25T13:56:15.324Z,0.70
2023-02-25T13:59:12.434Z,0.68
2023-02-25T14:02:17.211Z,1.52
2023-02-25T14:05:23.918Z,0.98
2023-02-25T14:08:23.301Z,1.42
2023-02-25T14:11:11.917Z,0.85
2023-02-25T14:14:18.334Z,0.38
2023-02-25T14:17:22.962Z,1.08
2023-02-25T14:19:59.440Z,3.42
2023-02-25T14:22:38.671Z,0.68
2023-02-25T14:28:26.838Z,2.40
2023-02-25T14:31:13.075Z,1.48
2023-02-25T14:34:28.266Z,2.13
2023-02-25T14:37:34.830Z,0.50
2023-02-25T14:40:18.022Z,3.08
2023-02-25T14:43:15.002Z,2.55
2023-02-25T14:46:04.479Z,1.65
2023-02-25T14:49:17.286Z,3.67
2023-02-25T14:52:53.331Z,6.13
2023-02-25T14:55:32.635Z,1.63
2023-02-25T14:58:36.998Z,1.88
2023-02-25T15:01:38.849Z,11.07
2023-02-25T15:04:39.357Z,8.02
2023-02-25T15:07:21.847Z,7.68
2023-02-25T15:10:26.853Z,2.85
2023-02-25T15:13:01.046Z,1.27
2023-02-25T15:16:07.217Z,4.70
2023-02-25T15:19:20.151Z,1.92
2023-02-25T15:21:49.804Z,4.15
2023-02-25T15:24:38.444Z,3.53
2023-02-25T15:27:36.771Z,2.42
2023-02-25T15:30:10.086Z,2.08
2023-02-25T15:32:51.199Z,6.07
2023-02-25T15:35:35.651Z,4.45
2023-02-25T15:38:18.145Z,2.33
2023-02-25T15:40:53.011Z,5.25
2023-02-25T15:43:23.922Z,2.88
2023-02-25T15:46:23.716Z,16.48
2023-02-25T15:49:28.667Z,14.52
2023-02-25T15:52:05.315Z,7.55
2023-02-25T15:54:32.817Z,5.15
2023-02-25T15:57:05.002Z,4.85
2023-02-25T15:59:57.697Z,6.82
2023-02-25T16:02:33.406Z,1.20
2023-02-25T16:05:09.932Z,0.52
2023-02-25T16:07:44.422Z,0.50
2023-02-25T16:10:47.978Z,2.95
2023-02-25T16:13:33.058Z,3.60
2023-02-25T16:16:04.029Z,2.40
2023-02-25T16:18:45.185Z,6.55
2023-02-25T16:21:25.468Z,3.80
2023-02-25T16:23:54.894Z,7.43
2023-02-25T16:26:50.141Z,2.95
2023-02-25T16:29:20.600Z,3.13
2023-02-25T16:32:20.242Z,1.42
2023-02-25T16:35:03.910Z,2.10
2023-02-25T16:37:43.465Z,1.58
2023-02-25T16:40:36.907Z,1.45
2023-02-25T16:43:05.746Z,0.95
2023-02-25T16:45:54.942Z,2.30
2023-02-25T16:48:32.105Z,7.10
2023-02-25T16:51:11.265Z,5.90
2023-02-25T16:53:48.005Z,3.92
2023-02-25T16:56:23.608Z,0.52
2023-02-25T16:59:20.125Z,1.52
2023-02-25T17:02:01.796Z,2.40
2023-02-25T17:05:12.409Z,1.52
2023-02-25T17:08:05.963Z,0.93
2023-02-25T17:10:43.821Z,2.92
2023-02-25T17:13:21.760Z,1.27
2023-02-25T17:15:51.072Z,7.53
2023-02-25T17:18:33.151Z,6.03
2023-02-25T17:21:35.866Z,2.78
2023-02-25T17:24:11.960Z,2.58
2023-02-25T17:26:49.489Z,5.40
2023-02-25T17:29:18.504Z,5.18
2023-02-25T17:31:55.149Z,1.52
2023-02-25T17:34:35.805Z,3.80
2023-02-25T17:37:08.062Z,3.47
2023-02-25T17:39:36.612Z,2.70
2023-02-25T17:42:32.706Z,2.33
2023-02-25T17:45:03.707Z,5.03
2023-02-25T17:47:35.642Z,4.13
2023-02-25T17:50:31.902Z,3.33
2023-02-25T17:53:00.314Z,5.53
2023-02-25T17:55:37.419Z,26.30
2023-02-25T17:58:05.272Z,8.05
2023-02-25T18:00:36.101Z,3.05
2023-02-25T18:03:12.153Z,3.45
2023-02-25T18:05:55.057Z,6.35
2023-02-25T18:08:26.395Z,6.43
2023-02-25T18:11:21.072Z,6.78
2023-02-25T18:13:48.746Z,2.10
2023-02-25T18:16:38.936Z,4.68
2023-02-25T18:19:35.743Z,4.80
2023-02-25T18:22:24.609Z,2.40
2023-02-25T18:24:59.205Z,4.73
2023-02-25T18:27:33.196Z,4.38
2023-02-25T18:30:18.385Z,4.20
2023-02-25T18:32:47.426Z,3.47
2023-02-25T18:35:16.140Z,3.65
2023-02-25T18:37:47.614Z,4.28
2023-02-25T18:40:50.116Z,3.50
2023-02-25T18:43:21.216Z,0.95
2023-02-25T18:45:49.997Z,2.95
2023-02-25T18:48:17.829Z,1.80
2023-02-25T18:50:45.573Z,9.68
2023-02-25T18:53:23.505Z,5.00
2023-02-25T18:55:53.133Z,1.80
2023-02-25T18:58:22.008Z,4.47
2023-02-25T19:00:57.325Z,9.70
2023-02-25T19:03:43.831Z,11.70
2023-02-25T19:06:11.466Z,5.13
2023-02-25T19:08:39.245Z,4.93
2023-02-25T19:11:24.631Z,2.05
2023-02-25T19:13:53.129Z,2.13
2023-02-25T19:16:21.181Z,0.73
2023-02-25T19:18:49.332Z,26.85
2023-02-25T19:21:27.002Z,5.57
2023-02-25T19:23:55.852Z,7.57
2023-02-25T19:26:23.787Z,2.33
2023-02-25T19:28:52.233Z,7.07
2023-02-25T19:31:21.011Z,1.95
2023-02-25T19:33:49.213Z,5.32
2023-02-25T19:36:16.697Z,1.55
2023-02-25T19:38:44.533Z,1.58
2023-02-25T19:41:14.414Z,2.83
2023-02-25T19:43:42.454Z,1.42
2023-02-25T19:46:10.423Z,2.45
2023-02-25T19:48:38.428Z,1.48
2023-02-25T19:51:08.813Z,1.02
2023-02-25T19:53:38.659Z,1.65
2023-02-25T19:56:08.124Z,3.30
2023-02-25T19:58:36.005Z,2.75
2023-02-25T20:01:06.479Z,2.35
2023-02-25T20:03:36.344Z,1.65
2023-02-25T20:06:13.669Z,0.25
2023-02-25T20:08:42.765Z,5.70
2023-02-25T20:11:12.094Z,0.50
2023-02-25T20:13:40.033Z,0.57
2023-02-25T20:16:09.346Z,1.35
2023-02-25T20:18:37.814Z,0.75
2023-02-25T20:21:06.253Z,0.68
2023-02-25T20:23:34.434Z,2.33
2023-02-25T20:26:15.453Z,2.50
2023-02-25T20:28:43.802Z,2.53
2023-02-25T20:31:20.466Z,0.70
2023-02-25T20:33:56.182Z,0.93
2023-02-25T20:36:31.894Z,0.60
2023-02-25T20:39:23.905Z,2.67
2023-02-25T20:41:51.688Z,0.60
2023-02-25T20:44:19.805Z,0.40
2023-02-25T20:46:47.661Z,0.80
2023-02-25T20:49:19.178Z,0.82
2023-02-25T20:51:48.903Z,1.60
2023-02-25T20:54:18.627Z,3.03
2023-02-25T20:56:47.769Z,2.97
2023-02-25T21:01:45.900Z,0.30
2023-02-25T21:06:41.376Z,0.52
2023-02-25T21:09:09.381Z,0.77
2023-02-25T21:11:36.986Z,0.28
2023-02-25T21:14:09.190Z,0.55
2023-02-25T21:16:38.697Z,0.80
2023-02-25T21:19:07.671Z,1.75
2023-02-25T21:21:37.405Z,0.55
2023-02-25T21:24:10.403Z,0.40
2023-02-25T21:26:41.046Z,0.15
2023-02-25T21:29:10.704Z,1.13
2023-02-25T21:31:39.506Z,3.53
2023-02-25T21:34:09.275Z,0.85
2023-02-25T21:36:38.108Z,2.28
2023-02-25T21:39:07.058Z,0.25
2023-02-25T21:41:36.792Z,0.45
2023-02-25T21:44:05.107Z,0.30
2023-02-25T21:46:39.313Z,0.20
2023-02-25T21:49:07.705Z,2.63
2023-02-25T21:51:35.538Z,2.08
2023-02-25T21:54:03.939Z,1.75
2023-02-25T21:56:32.406Z,0.90
2023-02-25T21:59:05.429Z,0.63
2023-02-25T22:02:28.538Z,0.10
2023-02-25T22:04:56.479Z,0.05
2023-02-25T22:07:24.075Z,0.47
2023-02-25T22:09:52.866Z,0.30
2023-02-25T22:12:20.579Z,0.28
2023-02-25T22:14:48.531Z,0.60
2023-02-25T22:17:16.534Z,0.75
2023-02-25T22:19:44.551Z,0.67
2023-02-25T22:22:14.119Z,0.10
2023-02-25T22:24:42.878Z,0.50
2023-02-25T22:27:10.506Z,0.20
2023-02-25T22:29:38.566Z,0.30
2023-02-25T22:32:06.888Z,0.60
2023-02-25T22:34:35.983Z,0.03
2023-02-25T22:37:03.629Z,0.00
2023-02-25T22:39:31.575Z,0.00
2023-02-25T22:41:59.067Z,1.85
2023-02-25T22:44:29.914Z,1.98
2023-02-25T22:46:57.616Z,0.45
2023-02-25T22:49:25.776Z,0.10
2023-02-25T22:51:53.670Z,1.17
2023-02-25T22:54:21.738Z,0.30
2023-02-25T22:56:49.916Z,0.00
2023-02-25T22:59:19.000Z,0.10
2023-02-25T23:01:46.636Z,1.58
2023-02-25T23:04:14.744Z,3.50
2023-02-25T23:06:45.020Z,3.55
2023-02-25T23:09:14.351Z,0.30
2023-02-25T23:11:44.441Z,0.57
2023-02-25T23:14:13.405Z,3.60
2023-02-25T23:16:46.096Z,0.10
2023-02-25T23:19:18.895Z,1.40
2023-02-25T23:21:47.768Z,2.17
2023-02-25T23:24:19.530Z,0.77
2023-02-25T23:26:50.754Z,1.05
2023-02-25T23:29:18.802Z,0.50
2023-02-25T23:31:48.258Z,1.38
2023-02-25T23:34:23.413Z,1.25
2023-02-25T23:36:54.557Z,3.45
2023-02-25T23:39:23.017Z,6.20
2023-02-25T23:41:50.822Z,6.03
2023-02-25T23:44:18.782Z,5.30
2023-02-25T23:46:46.379Z,4.65
2023-02-25T23:49:16.650Z,3.88
2023-02-25T23:51:47.194Z,4.47
2023-02-25T23:54:21.652Z,5.53
2023-02-25T23:56:50.457Z,5.32
2023-02-25T23:59:18.666Z,5.25
